STC96 KBNA-KLAL
Flight info
| Callsign | STC96 |
|---|---|
| Flight time | 1h 32m |
| Altitude | 35000 |
| Route | TIPPN4 DENST CULTO Q89 YANTI KYYUU LUBBR4 |
| Aircraft | B738/M-SDE2E3FGHIRWXY/LB1 |
Departure
| Time | 2026-04-21 22:06 |
|---|---|
| Airport | Nashville International Airport (KBNA) |
Arrival
| Time | 2026-04-21 23:38 |
|---|---|
| Airport | Lakeland Linder International Airport (KLAL) |
| Time | Latitude | Longitude | Altitude | Speed | Heading |
|---|---|---|---|---|---|
| 2026-04-21 21:48 | 36.12070 | -86.67323 | 609 ft | 0 kts | 272° |
| 2026-04-21 21:59 | 36.12070 | -86.67324 | 609 ft | 1 kts | 272° |
| 2026-04-21 21:59 | 36.12100 | -86.67378 | 609 ft | 11 kts | 320° |
| 2026-04-21 21:59 | 36.12117 | -86.67394 | 609 ft | 0 kts | 332° |
| 2026-04-21 22:03 | 36.12131 | -86.67396 | 609 ft | 9 kts | 355° |
| 2026-04-21 22:03 | 36.12243 | -86.67396 | 609 ft | 13 kts | 356° |
| 2026-04-21 22:04 | 36.12320 | -86.67467 | 609 ft | 17 kts | 313° |
| 2026-04-21 22:04 | 36.12420 | -86.67598 | 609 ft | 13 kts | 313° |
| 2026-04-21 22:04 | 36.12433 | -86.67665 | 609 ft | 7 kts | 243° |
| 2026-04-21 22:04 | 36.12363 | -86.67708 | 609 ft | 9 kts | 213° |
| 2026-04-21 22:05 | 36.12365 | -86.67787 | 609 ft | 11 kts | 288° |
| 2026-04-21 22:05 | 36.12389 | -86.67878 | 609 ft | 11 kts | 288° |
| 2026-04-21 22:05 | 36.12393 | -86.67964 | 609 ft | 10 kts | 228° |
| 2026-04-21 22:05 | 36.12329 | -86.67998 | 609 ft | 10 kts | 197° |
| 2026-04-21 22:06 | 36.12095 | -86.68092 | 609 ft | 76 kts | 198° |
| 2026-04-21 22:06 | 36.11324 | -86.68400 | 612 ft | 150 kts | 198° |
| 2026-04-21 22:06 | 36.10311 | -86.68797 | 1350 ft | 154 kts | 201° |
| 2026-04-21 22:06 | 36.09356 | -86.69162 | 2185 ft | 150 kts | 200° |
| 2026-04-21 22:07 | 36.08308 | -86.69549 | 2738 ft | 165 kts | 200° |
| 2026-04-21 22:07 | 36.07174 | -86.69971 | 3272 ft | 181 kts | 199° |
| 2026-04-21 22:07 | 36.05906 | -86.70451 | 3828 ft | 200 kts | 199° |
| 2026-04-21 22:07 | 36.04531 | -86.70973 | 4484 ft | 216 kts | 199° |
| 2026-04-21 22:08 | 36.03038 | -86.71448 | 5115 ft | 234 kts | 187° |
| 2026-04-21 22:08 | 36.01302 | -86.71064 | 5822 ft | 255 kts | 161° |
| 2026-04-21 22:08 | 35.99535 | -86.70026 | 6483 ft | 274 kts | 156° |
| 2026-04-21 22:08 | 35.97806 | -86.69001 | 7338 ft | 281 kts | 159° |
| 2026-04-21 22:09 | 35.96011 | -86.68031 | 8302 ft | 284 kts | 160° |
| 2026-04-21 22:09 | 35.94190 | -86.67103 | 9257 ft | 289 kts | 161° |
| 2026-04-21 22:09 | 35.92332 | -86.66174 | 10228 ft | 294 kts | 161° |
| 2026-04-21 22:09 | 35.90396 | -86.65208 | 10940 ft | 309 kts | 161° |
| 2026-04-21 22:10 | 35.88343 | -86.64180 | 11596 ft | 327 kts | 161° |
| 2026-04-21 22:10 | 35.86211 | -86.63107 | 12253 ft | 343 kts | 160° |
| 2026-04-21 22:10 | 35.83979 | -86.61980 | 13224 ft | 349 kts | 160° |
| 2026-04-21 22:10 | 35.81720 | -86.60837 | 14216 ft | 355 kts | 160° |
| 2026-04-21 22:11 | 35.79430 | -86.59680 | 15084 ft | 366 kts | 160° |
| 2026-04-21 22:11 | 35.77016 | -86.58467 | 15711 ft | 382 kts | 160° |
| 2026-04-21 22:11 | 35.74498 | -86.57205 | 16308 ft | 399 kts | 160° |
| 2026-04-21 22:11 | 35.71880 | -86.55891 | 16867 ft | 414 kts | 160° |
| 2026-04-21 22:12 | 35.69201 | -86.54545 | 17715 ft | 420 kts | 160° |
| 2026-04-21 22:12 | 35.66463 | -86.53168 | 18586 ft | 427 kts | 160° |
| 2026-04-21 22:12 | 35.63733 | -86.51797 | 19426 ft | 433 kts | 160° |
| 2026-04-21 22:12 | 35.60926 | -86.50389 | 20249 ft | 439 kts | 160° |
| 2026-04-21 22:13 | 35.58082 | -86.48967 | 21056 ft | 445 kts | 160° |
| 2026-04-21 22:13 | 35.55184 | -86.47525 | 21828 ft | 451 kts | 160° |
| 2026-04-21 22:13 | 35.52263 | -86.46074 | 22590 ft | 457 kts | 160° |
| 2026-04-21 22:13 | 35.49309 | -86.44607 | 23336 ft | 462 kts | 160° |
| 2026-04-21 22:14 | 35.46300 | -86.43111 | 24040 ft | 468 kts | 160° |
| 2026-04-21 22:14 | 35.43281 | -86.41576 | 24716 ft | 475 kts | 159° |
| 2026-04-21 22:14 | 35.40282 | -86.39773 | 25409 ft | 482 kts | 153° |
| 2026-04-21 22:14 | 35.37399 | -86.37592 | 26061 ft | 489 kts | 148° |
| 2026-04-21 22:15 | 35.34571 | -86.35027 | 26611 ft | 498 kts | 143° |
| 2026-04-21 22:15 | 35.31898 | -86.32335 | 27259 ft | 502 kts | 142° |
| 2026-04-21 22:15 | 35.29256 | -86.29513 | 27966 ft | 504 kts | 141° |
| 2026-04-21 22:15 | 35.26680 | -86.26675 | 28826 ft | 502 kts | 141° |
| 2026-04-21 22:16 | 35.24088 | -86.23797 | 29541 ft | 502 kts | 141° |
| 2026-04-21 22:16 | 35.21459 | -86.20887 | 30252 ft | 503 kts | 141° |
| 2026-04-21 22:16 | 35.18783 | -86.17947 | 31053 ft | 501 kts | 141° |
| 2026-04-21 22:16 | 35.16183 | -86.15108 | 31816 ft | 500 kts | 142° |
| 2026-04-21 22:17 | 35.13539 | -86.12240 | 32448 ft | 501 kts | 142° |
| 2026-04-21 22:17 | 35.10913 | -86.09403 | 33108 ft | 500 kts | 142° |
| 2026-04-21 22:17 | 35.08337 | -86.06630 | 33698 ft | 501 kts | 142° |
| 2026-04-21 22:17 | 35.05685 | -86.03780 | 34327 ft | 500 kts | 142° |
| 2026-04-21 22:18 | 35.03064 | -86.00967 | 34965 ft | 497 kts | 142° |
| 2026-04-21 22:18 | 35.00455 | -85.98170 | 35517 ft | 497 kts | 142° |
| 2026-04-21 22:18 | 34.97862 | -85.95393 | 36034 ft | 496 kts | 142° |
| 2026-04-21 22:18 | 34.95249 | -85.92596 | 36692 ft | 495 kts | 142° |
| 2026-04-21 22:19 | 34.92688 | -85.89856 | 37444 ft | 492 kts | 142° |
| 2026-04-21 22:19 | 34.90124 | -85.87112 | 38120 ft | 490 kts | 142° |
| 2026-04-21 22:19 | 34.87561 | -85.84376 | 38716 ft | 489 kts | 142° |
| 2026-04-21 22:19 | 34.85037 | -85.81685 | 39340 ft | 486 kts | 142° |
| 2026-04-21 22:20 | 34.82484 | -85.78958 | 39877 ft | 485 kts | 141° |
| 2026-04-21 22:20 | 34.80017 | -85.76148 | 40083 ft | 489 kts | 138° |
| 2026-04-21 22:20 | 34.77688 | -85.73127 | 40291 ft | 493 kts | 133° |
| 2026-04-21 22:20 | 34.75532 | -85.69896 | 40549 ft | 494 kts | 129° |
| 2026-04-21 22:21 | 34.73521 | -85.66534 | 40783 ft | 496 kts | 127° |
| 2026-04-21 22:21 | 34.71565 | -85.63054 | 41016 ft | 497 kts | 126° |
| 2026-04-21 22:21 | 34.69666 | -85.59560 | 41200 ft | 499 kts | 125° |
| 2026-04-21 22:22 | 34.65872 | -85.52442 | 41240 ft | 499 kts | 124° |
| 2026-04-21 22:22 | 34.62151 | -85.45448 | 41240 ft | 491 kts | 125° |
| 2026-04-21 22:23 | 34.58437 | -85.38513 | 41248 ft | 493 kts | 125° |
| 2026-04-21 22:23 | 34.54760 | -85.31692 | 41242 ft | 495 kts | 126° |
| 2026-04-21 22:24 | 34.51013 | -85.24773 | 41235 ft | 493 kts | 126° |
| 2026-04-21 22:24 | 34.47243 | -85.17841 | 41238 ft | 495 kts | 126° |
| 2026-04-21 22:25 | 34.43445 | -85.10865 | 41241 ft | 495 kts | 126° |
| 2026-04-21 22:25 | 34.39667 | -85.03943 | 41247 ft | 494 kts | 126° |
| 2026-04-21 22:26 | 34.35871 | -84.96997 | 41242 ft | 496 kts | 126° |
| 2026-04-21 22:26 | 34.32103 | -84.90107 | 41243 ft | 495 kts | 126° |
| 2026-04-21 22:27 | 34.28304 | -84.83172 | 41248 ft | 496 kts | 126° |
| 2026-04-21 22:27 | 34.24479 | -84.76201 | 41259 ft | 497 kts | 126° |
| 2026-04-21 22:28 | 34.20660 | -84.69273 | 41264 ft | 496 kts | 126° |
| 2026-04-21 22:28 | 34.16870 | -84.62402 | 41271 ft | 497 kts | 126° |
| 2026-04-21 22:29 | 34.13018 | -84.55437 | 41273 ft | 499 kts | 126° |
| 2026-04-21 22:29 | 34.09192 | -84.48523 | 41273 ft | 496 kts | 126° |
| 2026-04-21 22:30 | 34.05356 | -84.41599 | 41275 ft | 498 kts | 126° |
| 2026-04-21 22:30 | 34.01381 | -84.34770 | 41275 ft | 497 kts | 133° |
| 2026-04-21 22:30 | 33.99020 | -84.31796 | 41271 ft | 488 kts | 146° |
| 2026-04-21 22:31 | 33.96238 | -84.29581 | 41279 ft | 477 kts | 160° |
| 2026-04-21 22:31 | 33.90072 | -84.27079 | 41284 ft | 468 kts | 173° |
| 2026-04-21 22:32 | 33.83745 | -84.25350 | 41277 ft | 464 kts | 175° |
| 2026-04-21 22:32 | 33.77410 | -84.23704 | 41286 ft | 464 kts | 174° |
| 2026-04-21 22:33 | 33.71128 | -84.22036 | 41275 ft | 466 kts | 174° |
| 2026-04-21 22:33 | 33.64784 | -84.20338 | 41278 ft | 464 kts | 174° |
| 2026-04-21 22:34 | 33.58509 | -84.18658 | 41276 ft | 466 kts | 174° |
| 2026-04-21 22:34 | 33.52171 | -84.16959 | 41281 ft | 466 kts | 174° |
| 2026-04-21 22:35 | 33.45837 | -84.15263 | 41273 ft | 465 kts | 174° |
| 2026-04-21 22:35 | 33.39542 | -84.13586 | 41271 ft | 466 kts | 174° |
| 2026-04-21 22:36 | 33.30056 | -84.11056 | 41272 ft | 464 kts | 174° |
| 2026-04-21 22:36 | 33.23826 | -84.08828 | 41267 ft | 475 kts | 161° |
| 2026-04-21 22:37 | 33.18093 | -84.04754 | 41263 ft | 484 kts | 150° |
| 2026-04-21 22:37 | 33.12683 | -84.00023 | 41264 ft | 483 kts | 147° |
| 2026-04-21 22:38 | 33.07303 | -83.95181 | 41257 ft | 484 kts | 147° |
| 2026-04-21 22:38 | 33.01856 | -83.90374 | 41261 ft | 485 kts | 148° |
| 2026-04-21 22:39 | 32.96430 | -83.85651 | 41254 ft | 483 kts | 148° |
| 2026-04-21 22:39 | 32.90973 | -83.80938 | 41234 ft | 485 kts | 148° |
| 2026-04-21 22:40 | 32.85529 | -83.76253 | 41250 ft | 486 kts | 148° |
| 2026-04-21 22:40 | 32.80047 | -83.71545 | 41254 ft | 484 kts | 148° |
| 2026-04-21 22:41 | 32.74589 | -83.66872 | 41267 ft | 488 kts | 148° |
| 2026-04-21 22:41 | 32.69077 | -83.62152 | 41269 ft | 488 kts | 148° |
| 2026-04-21 22:42 | 32.63604 | -83.57465 | 41258 ft | 486 kts | 149° |
| 2026-04-21 22:42 | 32.58102 | -83.52767 | 41254 ft | 489 kts | 149° |
| 2026-04-21 22:43 | 32.52586 | -83.48060 | 41258 ft | 489 kts | 149° |
| 2026-04-21 22:43 | 32.47067 | -83.43358 | 41245 ft | 489 kts | 149° |
| 2026-04-21 22:44 | 32.41554 | -83.38670 | 41248 ft | 489 kts | 149° |
| 2026-04-21 22:44 | 32.36051 | -83.33993 | 41243 ft | 488 kts | 149° |
| 2026-04-21 22:45 | 32.30533 | -83.29324 | 41253 ft | 491 kts | 149° |
| 2026-04-21 22:45 | 32.24984 | -83.24635 | 41260 ft | 489 kts | 149° |
| 2026-04-21 22:46 | 32.19485 | -83.19988 | 41263 ft | 488 kts | 150° |
| 2026-04-21 22:46 | 32.13938 | -83.15309 | 41260 ft | 490 kts | 149° |
| 2026-04-21 22:47 | 32.08398 | -83.10641 | 41263 ft | 489 kts | 150° |
| 2026-04-21 22:47 | 32.02874 | -83.05979 | 41257 ft | 491 kts | 149° |
| 2026-04-21 22:48 | 31.97329 | -83.01317 | 41247 ft | 490 kts | 149° |
| 2026-04-21 22:48 | 31.91774 | -82.96667 | 41224 ft | 489 kts | 149° |
| 2026-04-21 22:49 | 31.86247 | -82.92044 | 41247 ft | 489 kts | 149° |
| 2026-04-21 22:49 | 31.80675 | -82.87425 | 41227 ft | 490 kts | 151° |
| 2026-04-21 22:50 | 31.74831 | -82.83348 | 41229 ft | 485 kts | 158° |
| 2026-04-21 22:50 | 31.68835 | -82.79869 | 41225 ft | 482 kts | 160° |
| 2026-04-21 22:51 | 31.62774 | -82.76484 | 41223 ft | 483 kts | 160° |
| 2026-04-21 22:51 | 31.56711 | -82.73040 | 41238 ft | 485 kts | 160° |
| 2026-04-21 22:52 | 31.50655 | -82.69556 | 41236 ft | 483 kts | 160° |
| 2026-04-21 22:52 | 31.44664 | -82.66093 | 41225 ft | 483 kts | 159° |
| 2026-04-21 22:53 | 31.38590 | -82.62601 | 41216 ft | 487 kts | 159° |
| 2026-04-21 22:53 | 31.32543 | -82.59123 | 41213 ft | 484 kts | 159° |
| 2026-04-21 22:54 | 31.26488 | -82.55660 | 41215 ft | 487 kts | 159° |
| 2026-04-21 22:54 | 31.20409 | -82.52179 | 41088 ft | 488 kts | 159° |
| 2026-04-21 22:55 | 31.17335 | -82.50418 | 40636 ft | 491 kts | 159° |
| 2026-04-21 22:55 | 31.14304 | -82.48678 | 40125 ft | 490 kts | 159° |
| 2026-04-21 22:55 | 31.11255 | -82.46931 | 39641 ft | 487 kts | 159° |
| 2026-04-21 22:55 | 31.08237 | -82.45203 | 39117 ft | 484 kts | 159° |
| 2026-04-21 22:56 | 31.05194 | -82.43462 | 38524 ft | 481 kts | 159° |
| 2026-04-21 22:56 | 31.02194 | -82.41749 | 37894 ft | 480 kts | 159° |
| 2026-04-21 22:56 | 30.99231 | -82.40059 | 37310 ft | 481 kts | 159° |
| 2026-04-21 22:56 | 30.96188 | -82.38329 | 36725 ft | 485 kts | 159° |
| 2026-04-21 22:57 | 30.93151 | -82.36607 | 36140 ft | 488 kts | 158° |
| 2026-04-21 22:57 | 30.90106 | -82.34880 | 35622 ft | 490 kts | 159° |
| 2026-04-21 22:57 | 30.87057 | -82.33147 | 35161 ft | 491 kts | 158° |
| 2026-04-21 22:57 | 30.83963 | -82.31390 | 34700 ft | 494 kts | 158° |
| 2026-04-21 22:58 | 30.80889 | -82.29645 | 34242 ft | 496 kts | 158° |
| 2026-04-21 22:58 | 30.77792 | -82.27886 | 33764 ft | 499 kts | 158° |
| 2026-04-21 22:58 | 30.74669 | -82.26113 | 33227 ft | 501 kts | 158° |
| 2026-04-21 22:58 | 30.71524 | -82.24332 | 32688 ft | 501 kts | 158° |
| 2026-04-21 22:59 | 30.68375 | -82.22589 | 32150 ft | 499 kts | 159° |
| 2026-04-21 22:59 | 30.65183 | -82.21097 | 31617 ft | 495 kts | 165° |
| 2026-04-21 22:59 | 30.61923 | -82.19978 | 31086 ft | 490 kts | 171° |
| 2026-04-21 22:59 | 30.58590 | -82.19249 | 30551 ft | 485 kts | 177° |
| 2026-04-21 23:00 | 30.55201 | -82.18920 | 30013 ft | 482 kts | 183° |
| 2026-04-21 23:00 | 30.51893 | -82.19081 | 29490 ft | 477 kts | 191° |
| 2026-04-21 23:00 | 30.48647 | -82.19692 | 29230 ft | 471 kts | 196° |
| 2026-04-21 23:00 | 30.45452 | -82.20480 | 29199 ft | 472 kts | 198° |
| 2026-04-21 23:01 | 30.38942 | -82.22008 | 29192 ft | 482 kts | 195° |
| 2026-04-21 23:01 | 30.35583 | -82.22659 | 29086 ft | 485 kts | 194° |
| 2026-04-21 23:01 | 30.32239 | -82.23222 | 28630 ft | 486 kts | 192° |
| 2026-04-21 23:02 | 30.28894 | -82.23712 | 28116 ft | 479 kts | 191° |
| 2026-04-21 23:02 | 30.25615 | -82.24140 | 27604 ft | 470 kts | 191° |
| 2026-04-21 23:02 | 30.22369 | -82.24534 | 27092 ft | 462 kts | 191° |
| 2026-04-21 23:02 | 30.19197 | -82.24885 | 26587 ft | 458 kts | 189° |
| 2026-04-21 23:03 | 30.15873 | -82.25105 | 26057 ft | 459 kts | 185° |
| 2026-04-21 23:03 | 30.12598 | -82.25011 | 25540 ft | 459 kts | 180° |
| 2026-04-21 23:03 | 30.09448 | -82.24706 | 25037 ft | 457 kts | 178° |
| 2026-04-21 23:03 | 30.06290 | -82.24297 | 24526 ft | 453 kts | 177° |
| 2026-04-21 23:04 | 30.03158 | -82.23843 | 24001 ft | 448 kts | 176° |
| 2026-04-21 23:04 | 30.00109 | -82.23395 | 23488 ft | 443 kts | 176° |
| 2026-04-21 23:04 | 29.97029 | -82.22954 | 22970 ft | 440 kts | 176° |
| 2026-04-21 23:04 | 29.93972 | -82.22531 | 22454 ft | 437 kts | 176° |
| 2026-04-21 23:05 | 29.90893 | -82.22115 | 21930 ft | 433 kts | 176° |
| 2026-04-21 23:05 | 29.87863 | -82.21714 | 21409 ft | 429 kts | 176° |
| 2026-04-21 23:05 | 29.84813 | -82.21316 | 20883 ft | 425 kts | 176° |
| 2026-04-21 23:05 | 29.81683 | -82.20911 | 20342 ft | 421 kts | 176° |
| 2026-04-21 23:06 | 29.78679 | -82.20523 | 19807 ft | 418 kts | 176° |
| 2026-04-21 23:06 | 29.75812 | -82.20153 | 19304 ft | 414 kts | 176° |
| 2026-04-21 23:06 | 29.72956 | -82.19785 | 18803 ft | 410 kts | 175° |
| 2026-04-21 23:06 | 29.70122 | -82.19421 | 18302 ft | 406 kts | 175° |
| 2026-04-21 23:07 | 29.67295 | -82.19058 | 17806 ft | 404 kts | 175° |
| 2026-04-21 23:07 | 29.64545 | -82.18707 | 17307 ft | 401 kts | 175° |
| 2026-04-21 23:07 | 29.61739 | -82.18349 | 16803 ft | 398 kts | 174° |
| 2026-04-21 23:07 | 29.59501 | -82.18063 | 16399 ft | 393 kts | 174° |
| 2026-04-21 23:08 | 29.57684 | -82.17841 | 16257 ft | 386 kts | 178° |
| 2026-04-21 23:08 | 29.55049 | -82.17545 | 15738 ft | 370 kts | 178° |
| 2026-04-21 23:08 | 29.52555 | -82.17233 | 15252 ft | 354 kts | 177° |
| 2026-04-21 23:08 | 29.50092 | -82.16901 | 14741 ft | 340 kts | 177° |
| 2026-04-21 23:09 | 29.47773 | -82.16588 | 14225 ft | 328 kts | 176° |
| 2026-04-21 23:09 | 29.45534 | -82.16294 | 13709 ft | 318 kts | 176° |
| 2026-04-21 23:09 | 29.43364 | -82.16019 | 13193 ft | 311 kts | 175° |
| 2026-04-21 23:09 | 29.41237 | -82.15755 | 12698 ft | 310 kts | 173° |
| 2026-04-21 23:10 | 29.39091 | -82.15487 | 12196 ft | 310 kts | 173° |
| 2026-04-21 23:10 | 29.36961 | -82.15221 | 11702 ft | 307 kts | 173° |
| 2026-04-21 23:10 | 29.34841 | -82.14955 | 11230 ft | 304 kts | 173° |
| 2026-04-21 23:10 | 29.32752 | -82.14694 | 10762 ft | 301 kts | 172° |
| 2026-04-21 23:11 | 29.30664 | -82.14432 | 10302 ft | 302 kts | 172° |
| 2026-04-21 23:11 | 29.28586 | -82.14169 | 9805 ft | 303 kts | 172° |
| 2026-04-21 23:11 | 29.26477 | -82.13904 | 9310 ft | 302 kts | 172° |
| 2026-04-21 23:11 | 29.24378 | -82.13641 | 8784 ft | 302 kts | 173° |
| 2026-04-21 23:12 | 29.22318 | -82.13383 | 8298 ft | 301 kts | 172° |
| 2026-04-21 23:12 | 29.20220 | -82.13120 | 7811 ft | 301 kts | 172° |
| 2026-04-21 23:12 | 29.18130 | -82.12858 | 7323 ft | 300 kts | 173° |
| 2026-04-21 23:12 | 29.16057 | -82.12683 | 6813 ft | 296 kts | 176° |
| 2026-04-21 23:13 | 29.14057 | -82.12614 | 6502 ft | 282 kts | 178° |
| 2026-04-21 23:13 | 29.12148 | -82.12593 | 6474 ft | 266 kts | 178° |
| 2026-04-21 23:13 | 29.10291 | -82.12576 | 6496 ft | 270 kts | 178° |
| 2026-04-21 23:13 | 29.08382 | -82.12547 | 6500 ft | 275 kts | 178° |
| 2026-04-21 23:14 | 29.06458 | -82.12511 | 6476 ft | 274 kts | 178° |
| 2026-04-21 23:14 | 29.04549 | -82.12472 | 6471 ft | 274 kts | 177° |
| 2026-04-21 23:14 | 29.02629 | -82.12430 | 6514 ft | 275 kts | 178° |
| 2026-04-21 23:14 | 29.00710 | -82.12389 | 6468 ft | 277 kts | 178° |
| 2026-04-21 23:15 | 28.98794 | -82.12350 | 6460 ft | 271 kts | 178° |
| 2026-04-21 23:15 | 28.96912 | -82.12311 | 6466 ft | 273 kts | 178° |
| 2026-04-21 23:15 | 28.95007 | -82.12270 | 6471 ft | 274 kts | 178° |
| 2026-04-21 23:15 | 28.93084 | -82.12231 | 6455 ft | 273 kts | 178° |
| 2026-04-21 23:16 | 28.91172 | -82.12191 | 6477 ft | 274 kts | 178° |
| 2026-04-21 23:16 | 28.89247 | -82.12151 | 6477 ft | 274 kts | 178° |
| 2026-04-21 23:16 | 28.87357 | -82.12112 | 6478 ft | 273 kts | 178° |
| 2026-04-21 23:16 | 28.85442 | -82.12073 | 6499 ft | 273 kts | 177° |
| 2026-04-21 23:17 | 28.83460 | -82.12030 | 6480 ft | 274 kts | 177° |
| 2026-04-21 23:17 | 28.81557 | -82.11990 | 6475 ft | 272 kts | 177° |
| 2026-04-21 23:17 | 28.79648 | -82.11950 | 6492 ft | 274 kts | 178° |
| 2026-04-21 23:17 | 28.77747 | -82.11911 | 6487 ft | 273 kts | 177° |
| 2026-04-21 23:18 | 28.75846 | -82.11871 | 6484 ft | 273 kts | 177° |
| 2026-04-21 23:18 | 28.73944 | -82.11832 | 6470 ft | 273 kts | 177° |
| 2026-04-21 23:18 | 28.72018 | -82.11792 | 6460 ft | 274 kts | 178° |
| 2026-04-21 23:18 | 28.70114 | -82.11752 | 6483 ft | 273 kts | 177° |
| 2026-04-21 23:19 | 28.68210 | -82.11657 | 6471 ft | 272 kts | 172° |
| 2026-04-21 23:19 | 28.66379 | -82.11151 | 6482 ft | 270 kts | 157° |
| 2026-04-21 23:19 | 28.64642 | -82.10301 | 6465 ft | 267 kts | 153° |
| 2026-04-21 23:19 | 28.63023 | -82.09433 | 6473 ft | 247 kts | 152° |
| 2026-04-21 23:20 | 28.61488 | -82.08633 | 6466 ft | 239 kts | 153° |
| 2026-04-21 23:20 | 28.59871 | -82.07828 | 6473 ft | 235 kts | 154° |
| 2026-04-21 23:20 | 28.58263 | -82.07046 | 6475 ft | 236 kts | 154° |
| 2026-04-21 23:20 | 28.56618 | -82.06251 | 6473 ft | 237 kts | 154° |
| 2026-04-21 23:21 | 28.54997 | -82.05470 | 6470 ft | 233 kts | 154° |
| 2026-04-21 23:21 | 28.53377 | -82.04690 | 6368 ft | 223 kts | 154° |
| 2026-04-21 23:21 | 28.51824 | -82.03940 | 6133 ft | 216 kts | 154° |
| 2026-04-21 23:21 | 28.50328 | -82.03217 | 5833 ft | 212 kts | 154° |
| 2026-04-21 23:22 | 28.48873 | -82.02513 | 5544 ft | 208 kts | 153° |
| 2026-04-21 23:22 | 28.47413 | -82.01808 | 5253 ft | 202 kts | 153° |
| 2026-04-21 23:22 | 28.45993 | -82.01122 | 4948 ft | 197 kts | 153° |
| 2026-04-21 23:22 | 28.44620 | -82.00459 | 4652 ft | 192 kts | 153° |
| 2026-04-21 23:23 | 28.43272 | -81.99809 | 4354 ft | 188 kts | 152° |
| 2026-04-21 23:23 | 28.41975 | -81.99185 | 4063 ft | 184 kts | 152° |
| 2026-04-21 23:23 | 28.40796 | -81.98618 | 3801 ft | 180 kts | 152° |
| 2026-04-21 23:23 | 28.39653 | -81.98067 | 3533 ft | 177 kts | 151° |
| 2026-04-21 23:24 | 28.38517 | -81.97517 | 3265 ft | 175 kts | 151° |
| 2026-04-21 23:24 | 28.37406 | -81.96982 | 2996 ft | 173 kts | 151° |
| 2026-04-21 23:24 | 28.36307 | -81.96454 | 2728 ft | 171 kts | 151° |
| 2026-04-21 23:24 | 28.35227 | -81.95935 | 2503 ft | 163 kts | 150° |
| 2026-04-21 23:25 | 28.34202 | -81.95443 | 2234 ft | 158 kts | 150° |
| 2026-04-21 23:25 | 28.33223 | -81.94974 | 2138 ft | 143 kts | 149° |
| 2026-04-21 23:25 | 28.32338 | -81.94549 | 2152 ft | 136 kts | 149° |
| 2026-04-21 23:25 | 28.31438 | -81.94103 | 2194 ft | 145 kts | 148° |
| 2026-04-21 23:26 | 28.30484 | -81.93645 | 2176 ft | 148 kts | 149° |
| 2026-04-21 23:26 | 28.29534 | -81.93196 | 2175 ft | 145 kts | 149° |
| 2026-04-21 23:26 | 28.28608 | -81.92749 | 2183 ft | 147 kts | 149° |
| 2026-04-21 23:26 | 28.27665 | -81.92294 | 2178 ft | 146 kts | 149° |
| 2026-04-21 23:27 | 28.26765 | -81.91788 | 2176 ft | 141 kts | 137° |
| 2026-04-21 23:27 | 28.26075 | -81.91019 | 2187 ft | 140 kts | 126° |
| 2026-04-21 23:27 | 28.25394 | -81.90232 | 2176 ft | 139 kts | 129° |
| 2026-04-21 23:27 | 28.24686 | -81.89484 | 2176 ft | 138 kts | 130° |
| 2026-04-21 23:28 | 28.23982 | -81.88724 | 2177 ft | 140 kts | 130° |
| 2026-04-21 23:28 | 28.23273 | -81.87957 | 2176 ft | 139 kts | 129° |
| 2026-04-21 23:28 | 28.22573 | -81.87205 | 2179 ft | 139 kts | 130° |
| 2026-04-21 23:28 | 28.21870 | -81.86445 | 2183 ft | 140 kts | 129° |
| 2026-04-21 23:29 | 28.21167 | -81.85686 | 2182 ft | 140 kts | 130° |
| 2026-04-21 23:29 | 28.20460 | -81.84923 | 2183 ft | 139 kts | 129° |
| 2026-04-21 23:29 | 28.19761 | -81.84170 | 2178 ft | 139 kts | 129° |
| 2026-04-21 23:29 | 28.19053 | -81.83405 | 2183 ft | 140 kts | 129° |
| 2026-04-21 23:30 | 28.18343 | -81.82644 | 2180 ft | 141 kts | 130° |
| 2026-04-21 23:30 | 28.17514 | -81.81994 | 2176 ft | 149 kts | 152° |
| 2026-04-21 23:30 | 28.16448 | -81.81961 | 2194 ft | 162 kts | 186° |
| 2026-04-21 23:30 | 28.15407 | -81.82533 | 2185 ft | 172 kts | 212° |
| 2026-04-21 23:31 | 28.14616 | -81.83563 | 2188 ft | 175 kts | 229° |
| 2026-04-21 23:31 | 28.13875 | -81.84673 | 2185 ft | 176 kts | 227° |
| 2026-04-21 23:31 | 28.13103 | -81.85748 | 2185 ft | 174 kts | 225° |
| 2026-04-21 23:31 | 28.12332 | -81.86800 | 2189 ft | 174 kts | 225° |
| 2026-04-21 23:32 | 28.11557 | -81.87865 | 2187 ft | 175 kts | 225° |
| 2026-04-21 23:32 | 28.10782 | -81.88937 | 2184 ft | 175 kts | 225° |
| 2026-04-21 23:32 | 28.10052 | -81.90044 | 2186 ft | 177 kts | 232° |
| 2026-04-21 23:32 | 28.09393 | -81.91228 | 2184 ft | 177 kts | 233° |
| 2026-04-21 23:33 | 28.08786 | -81.92452 | 2175 ft | 179 kts | 244° |
| 2026-04-21 23:33 | 28.08292 | -81.93741 | 2133 ft | 175 kts | 246° |
| 2026-04-21 23:33 | 28.07890 | -81.95055 | 2122 ft | 179 kts | 253° |
| 2026-04-21 23:33 | 28.07611 | -81.96438 | 2153 ft | 179 kts | 256° |
| 2026-04-21 23:34 | 28.07280 | -81.97779 | 2150 ft | 178 kts | 241° |
| 2026-04-21 23:34 | 28.06634 | -81.98962 | 2096 ft | 174 kts | 230° |
| 2026-04-21 23:34 | 28.05917 | -82.00070 | 2115 ft | 174 kts | 229° |
| 2026-04-21 23:34 | 28.05173 | -82.01163 | 2182 ft | 174 kts | 224° |
| 2026-04-21 23:35 | 28.04297 | -82.01994 | 2149 ft | 154 kts | 202° |
| 2026-04-21 23:35 | 28.03279 | -82.02440 | 2090 ft | 155 kts | 186° |
| 2026-04-21 23:35 | 28.02306 | -82.02647 | 2057 ft | 139 kts | 178° |
| 2026-04-21 23:35 | 28.01346 | -82.02805 | 2154 ft | 140 kts | 183° |
| 2026-04-21 23:36 | 28.00556 | -82.03498 | 2028 ft | 160 kts | 244° |
| 2026-04-21 23:36 | 28.00443 | -82.04771 | 1807 ft | 158 kts | 270° |
| 2026-04-21 23:36 | 28.00399 | -82.06020 | 1639 ft | 161 kts | 251° |
| 2026-04-21 23:36 | 27.99733 | -82.06918 | 1420 ft | 143 kts | 189° |
| 2026-04-21 23:37 | 27.98896 | -82.06738 | 1285 ft | 115 kts | 121° |
| 2026-04-21 23:37 | 27.98847 | -82.05872 | 904 ft | 117 kts | 81° |
| 2026-04-21 23:37 | 27.98930 | -82.04993 | 584 ft | 114 kts | 89° |
| 2026-04-21 23:37 | 27.98924 | -82.04095 | 312 ft | 112 kts | 89° |
| 2026-04-21 23:38 | 27.98927 | -82.03178 | 135 ft | 111 kts | 90° |
| 2026-04-21 23:38 | 27.98928 | -82.02507 | 129 ft | 68 kts | 90° |
| 2026-04-21 23:38 | 27.98929 | -82.02028 | 134 ft | 55 kts | 90° |
| 2026-04-21 23:38 | 27.98930 | -82.01624 | 137 ft | 48 kts | 90° |
| 2026-04-21 23:39 | 27.98930 | -82.01262 | 140 ft | 43 kts | 89° |
| 2026-04-21 23:39 | 27.98931 | -82.00951 | 140 ft | 33 kts | 90° |
| 2026-04-21 23:39 | 27.98938 | -82.00815 | 140 ft | 6 kts | 74° |
| 2026-04-21 23:39 | 27.98989 | -82.00774 | 140 ft | 15 kts | 12° |
| 2026-04-21 23:40 | 27.99095 | -82.00767 | 142 ft | 14 kts | 360° |
| 2026-04-21 23:40 | 27.99162 | -82.00782 | 143 ft | 8 kts | 321° |
| 2026-04-21 23:40 | 27.99214 | -82.00842 | 143 ft | 15 kts | 315° |
| 2026-04-21 23:40 | 27.99286 | -82.00923 | 143 ft | 12 kts | 312° |
| 2026-04-21 23:41 | 27.99290 | -82.00979 | 143 ft | 8 kts | 236° |
| 2026-04-21 23:41 | 27.99230 | -82.01056 | 140 ft | 14 kts | 226° |
| 2026-04-21 23:41 | 27.99159 | -82.01141 | 140 ft | 14 kts | 229° |
| 2026-04-21 23:41 | 27.99129 | -82.01176 | 140 ft | 0 kts | 192° |
| 2026-04-21 23:42 | 27.99127 | -82.01173 | 140 ft | 0 kts | 120° |
| 2026-04-21 23:42 | 27.99128 | -82.01171 | 140 ft | 0 kts | 92° |
| 2026-04-21 23:43 | 27.99127 | -82.01171 | 140 ft | 0 kts | 92° |
| 2026-04-21 23:43 | 27.99128 | -82.01171 | 140 ft | 0 kts | 92° |
| 2026-04-21 23:44 | 27.99127 | -82.01171 | 140 ft | 0 kts | 92° |
| 2026-04-21 23:45 | 27.99128 | -82.01171 | 140 ft | 0 kts | 92° |
| 2026-04-21 23:46 | 27.99127 | -82.01171 | 140 ft | 0 kts | 92° |
| 2026-04-21 23:46 | 27.99128 | -82.01171 | 140 ft | 0 kts | 92° |
| 2026-04-21 23:46 | 27.99127 | -82.01171 | 140 ft | 0 kts | 92° |
| 2026-04-21 23:47 | 27.99128 | -82.01171 | 140 ft | 0 kts | 92° |
| 2026-04-21 23:47 | 27.99127 | -82.01171 | 140 ft | 0 kts | 92° |
| 2026-04-21 23:48 | 27.99128 | -82.01171 | 140 ft | 0 kts | 92° |